Time;durP1;ratioP1;P1;durP2;ratioP2;P2;SDS_P1;SDS_P2;PMS_P1;PMS_P2;Temp;Humidity;BMP_temperature;BMP_pressure;BME280_temperature;BME280_humidity;BME280_pressure;Samples;Min_cycle;Max_cycle;Signal;HPM_P1;HPM_P2
2023/04/05 00:00:14;;;;;;;14.10;7.68;;;1.70;86.30;;;;;;6216375;22;88098;-76
2023/04/05 00:02:40;;;;;;;12.43;6.05;;;1.60;86.70;;;;;;6216024;22;87685;-77
2023/04/05 00:05:07;;;;;;;15.60;6.35;;;1.60;86.10;;;;;;6215659;22;87212;-77
2023/04/05 00:24:23;;;;;;;13.80;6.10;;;1.40;87.50;;;;;;6215473;22;88657;-79
2023/04/05 00:26:48;;;;;;;10.82;6.32;;;1.30;87.50;;;;;;6189257;22;89875;-79
2023/04/05 00:29:14;;;;;;;10.75;6.32;;;1.30;87.50;;;;;;6189030;22;87584;-80
2023/04/05 00:31:39;;;;;;;12.07;6.97;;;1.20;87.40;;;;;;6216824;22;87298;-79
2023/04/05 00:34:07;;;;;;;11.45;6.50;;;1.20;87.60;;;;;;6215519;22;88318;-80
2023/04/05 00:36:33;;;;;;;11.63;6.32;;;1.20;89.80;;;;;;6215431;22;89077;-79
2023/04/05 00:38:59;;;;;;;12.48;6.00;;;1.10;90.00;;;;;;6216032;22;87391;-79
2023/04/05 00:41:24;;;;;;;11.25;6.35;;;1.10;90.00;;;;;;6216194;22;86984;-80
2023/04/05 00:43:55;;;;;;;14.27;7.20;;;1.10;89.40;;;;;;6216364;22;87967;-81
2023/04/05 00:46:21;;;;;;;15.10;6.63;;;1.00;90.10;;;;;;6216304;22;92332;-80
2023/04/05 00:48:47;;;;;;;13.35;7.63;;;1.00;90.30;;;;;;6215763;22;88314;-78
2023/04/05 00:51:13;;;;;;;12.85;6.82;;;0.90;90.60;;;;;;6217010;22;89330;-77
2023/04/05 00:53:39;;;;;;;12.43;6.28;;;0.90;90.40;;;;;;6217445;22;88478;-79
2023/04/05 00:56:05;;;;;;;12.45;5.93;;;0.80;90.30;;;;;;6189983;22;91252;-79
2023/04/05 00:58:32;;;;;;;13.65;6.75;;;0.80;89.80;;;;;;6218274;22;87598;-80
2023/04/05 01:01:12;;;;;;;13.18;6.32;;;0.80;90.80;;;;;;6217236;22;88392;-79
2023/04/05 01:03:42;;;;;;;11.05;6.70;;;0.80;90.30;;;;;;6216786;22;88257;-81
2023/04/05 01:06:28;;;;;;;12.35;6.25;;;0.70;91.00;;;;;;6190177;22;91482;-80
2023/04/05 01:09:22;;;;;;;9.85;6.07;;;0.70;91.30;;;;;;6190434;22;87384;-79
2023/04/05 01:11:48;;;;;;;14.77;6.43;;;0.70;91.30;;;;;;6189951;22;90761;-81
2023/04/05 01:24:38;;;;;;;12.40;7.03;;;0.50;91.10;;;;;;6217008;22;87474;-79
2023/04/05 01:27:15;;;;;;;17.15;7.85;;;0.50;91.00;;;;;;6217169;22;88622;-77
2023/04/05 01:29:46;;;;;;;13.45;6.80;;;0.40;91.20;;;;;;6217075;22;88271;-78
2023/04/05 01:32:38;;;;;;;15.45;7.20;;;0.40;91.20;;;;;;6217643;22;87168;-80
2023/04/05 01:35:47;;;;;;;14.27;7.50;;;0.40;91.30;;;;;;6190800;22;88860;-80
2023/04/05 01:38:21;;;;;;;15.23;8.05;;;0.30;91.20;;;;;;6216673;22;88581;-77
2023/04/05 01:40:47;;;;;;;13.10;7.55;;;0.30;91.20;;;;;;6217658;22;88361;-80
2023/04/05 01:43:14;;;;;;;16.08;8.10;;;0.30;91.00;;;;;;6216977;22;88485;-83
2023/04/05 01:45:41;;;;;;;16.13;8.07;;;0.30;91.40;;;;;;6217472;22;87199;-80
2023/04/05 01:48:06;;;;;;;20.38;8.70;;;0.20;91.50;;;;;;6217535;22;88978;-79
2023/04/05 01:53:05;;;;;;;14.85;8.32;;;0.20;91.90;;;;;;6190677;22;87195;-80
2023/04/05 01:55:31;;;;;;;15.75;7.72;;;0.20;92.10;;;;;;6218015;22;87501;-79
2023/04/05 01:57:57;;;;;;;16.38;8.77;;;0.20;91.90;;;;;;6217405;22;88444;-80
2023/04/05 02:00:22;;;;;;;18.75;9.13;;;0.10;91.90;;;;;;6217570;22;88293;-79
2023/04/05 02:16:17;;;;;;;19.67;8.57;;;0.00;92.20;;;;;;6215975;22;87539;-79
2023/04/05 02:18:49;;;;;;;21.73;9.10;;;0.00;92.00;;;;;;6190090;22;89278;-79
2023/04/05 02:21:15;;;;;;;16.13;8.30;;;0.00;92.20;;;;;;6216893;22;87550;-79
2023/04/05 02:23:41;;;;;;;16.65;8.32;;;-0.10;92.20;;;;;;6216400;22;87240;-80
2023/04/05 02:26:06;;;;;;;16.52;8.80;;;-0.10;92.40;;;;;;6216700;22;87435;-79
2023/04/05 02:28:33;;;;;;;17.83;9.80;;;-0.10;92.30;;;;;;6218114;22;87360;-79
2023/04/05 02:30:59;;;;;;;17.63;8.45;;;-0.10;92.20;;;;;;6190280;22;91638;-78
2023/04/05 02:33:24;;;;;;;15.00;8.00;;;-0.20;92.00;;;;;;6217076;22;88162;-79
2023/04/05 02:35:51;;;;;;;18.45;8.48;;;-0.20;92.00;;;;;;6189477;22;88492;-81
2023/04/05 02:38:17;;;;;;;16.63;8.65;;;-0.20;91.90;;;;;;6189376;22;90774;-78
2023/04/05 02:44:05;;;;;;;12.55;7.60;;;-0.30;92.50;;;;;;6216130;22;90185;-86
2023/04/05 02:46:30;;;;;;;14.80;7.60;;;-0.30;92.40;;;;;;6190848;22;87592;-78
2023/04/05 02:48:56;;;;;;;12.75;7.35;;;-0.40;92.20;;;;;;6216893;22;88324;-78
2023/04/05 02:51:21;;;;;;;16.95;8.07;;;-0.40;92.10;;;;;;6217162;22;87872;-81
2023/04/05 02:53:47;;;;;;;15.10;7.50;;;-0.40;92.00;;;;;;6217384;22;88299;-78
2023/04/05 02:56:13;;;;;;;20.40;9.45;;;-0.40;92.00;;;;;;6217150;22;87506;-81
2023/04/05 02:58:39;;;;;;;17.83;8.13;;;-0.40;92.60;;;;;;6217394;22;87350;-80
2023/04/05 03:01:05;;;;;;;17.15;9.02;;;-0.50;92.60;;;;;;6189061;22;91219;-82
2023/04/05 03:03:35;;;;;;;17.60;9.45;;;-0.40;92.90;;;;;;6216766;22;88699;-78
2023/04/05 03:06:12;;;;;;;22.52;9.25;;;-0.50;93.20;;;;;;6216383;22;87585;-77
2023/04/05 03:25:27;;;;;;;16.90;8.30;;;-0.60;92.50;;;;;;6216041;22;90655;-80
2023/04/05 03:27:54;;;;;;;21.85;8.80;;;-0.60;92.80;;;;;;6216567;22;88262;-77
2023/04/05 03:30:19;;;;;;;16.88;9.57;;;-0.60;92.80;;;;;;6188764;22;88362;-78
2023/04/05 03:32:45;;;;;;;19.50;9.68;;;-0.60;93.00;;;;;;6216490;22;87375;-78
2023/04/05 03:35:12;;;;;;;18.35;10.95;;;-0.70;93.10;;;;;;6216392;22;88628;-80
2023/04/05 03:37:37;;;;;;;18.98;9.80;;;-0.70;93.20;;;;;;6216472;22;88245;-78
2023/04/05 03:40:05;;;;;;;17.45;9.20;;;-0.70;93.00;;;;;;6216817;22;87474;-84
2023/04/05 03:42:30;;;;;;;18.70;9.98;;;-0.70;92.90;;;;;;6216480;22;87268;-81
2023/04/05 03:44:56;;;;;;;17.20;9.40;;;-0.70;93.20;;;;;;6188742;22;91370;-80
2023/04/05 03:47:22;;;;;;;20.90;8.90;;;-0.80;92.70;;;;;;6190299;22;91248;-77
2023/04/05 03:49:47;;;;;;;19.38;9.70;;;-0.80;93.00;;;;;;6217332;22;87293;-81
2023/04/05 03:52:13;;;;;;;19.15;10.23;;;-0.90;93.00;;;;;;6189386;22;90649;-78
2023/04/05 03:54:43;;;;;;;17.25;9.20;;;-0.90;92.80;;;;;;6215146;22;88777;-79
2023/04/05 03:57:09;;;;;;;18.23;9.63;;;-0.90;93.10;;;;;;6189124;22;92080;-81
2023/04/05 03:59:35;;;;;;;17.25;9.00;;;-1.00;93.30;;;;;;6216376;22;87414;-78
2023/04/05 04:02:01;;;;;;;18.77;9.75;;;-0.90;93.10;;;;;;6215714;22;88468;-85
2023/04/05 04:04:27;;;;;;;19.42;9.93;;;-1.00;92.80;;;;;;6216378;22;88707;-81
2023/04/05 04:06:53;;;;;;;21.17;10.18;;;-1.00;92.80;;;;;;6216063;22;87398;-79
2023/04/05 04:09:18;;;;;;;17.30;9.43;;;-1.00;93.40;;;;;;6215386;22;87548;-83
2023/04/05 04:11:44;;;;;;;18.65;9.38;;;-1.00;93.40;;;;;;6189260;22;90459;-79
2023/04/05 04:14:09;;;;;;;18.63;10.63;;;-1.00;93.50;;;;;;6215797;22;87360;-81
2023/04/05 04:16:35;;;;;;;19.15;9.57;;;-1.10;93.10;;;;;;6215953;22;88279;-80
2023/04/05 04:19:01;;;;;;;18.50;9.18;;;-1.10;93.10;;;;;;6215786;22;87926;-80
2023/04/05 04:21:26;;;;;;;18.95;9.57;;;-1.10;93.10;;;;;;6216572;22;87498;-83
2023/04/05 04:23:52;;;;;;;17.27;9.60;;;-1.10;93.30;;;;;;6216629;22;88930;-80
2023/04/05 04:26:25;;;;;;;20.60;10.32;;;-1.10;93.30;;;;;;6190335;22;90477;-79
2023/04/05 04:28:52;;;;;;;21.48;10.07;;;-1.10;93.40;;;;;;6190529;22;87963;-79
2023/04/05 04:31:20;;;;;;;23.38;10.80;;;-1.10;93.30;;;;;;6216480;22;91807;-78
2023/04/05 04:37:07;;;;;;;23.73;9.98;;;-1.20;92.90;;;;;;6215846;22;87032;-80
2023/04/05 04:39:33;;;;;;;21.17;10.32;;;-1.20;93.10;;;;;;6216022;22;87350;-77
2023/04/05 04:42:00;;;;;;;20.00;9.60;;;-1.20;93.10;;;;;;6216819;22;87472;-79
2023/04/05 04:44:30;;;;;;;27.58;10.80;;;-1.30;93.10;;;;;;6189561;22;92565;-80
2023/04/05 04:46:55;;;;;;;21.42;11.02;;;-1.30;93.30;;;;;;6189635;22;89995;-81
2023/04/05 04:52:52;;;;;;;18.65;9.65;;;-1.30;93.30;;;;;;6217053;22;89356;-80
2023/04/05 04:55:24;;;;;;;24.58;10.43;;;-1.30;93.20;;;;;;6217541;22;92810;-79
2023/04/05 04:57:50;;;;;;;21.35;11.10;;;-1.30;93.40;;;;;;6189374;22;89779;-81
2023/04/05 05:00:17;;;;;;;21.65;10.45;;;-1.30;93.60;;;;;;6216669;22;87458;-78
2023/04/05 05:02:45;;;;;;;19.90;9.82;;;-1.40;93.40;;;;;;6216996;22;87323;-81
2023/04/05 05:05:11;;;;;;;18.98;10.00;;;-1.40;93.20;;;;;;6217362;22;87914;-81
2023/04/05 05:07:39;;;;;;;18.70;9.73;;;-1.40;93.30;;;;;;6217145;22;87852;-79
2023/04/05 05:10:06;;;;;;;20.60;10.35;;;-1.40;93.60;;;;;;6189836;22;88552;-78
2023/04/05 05:12:32;;;;;;;25.30;10.50;;;-1.40;93.50;;;;;;6189772;22;90686;-81
2023/04/05 05:14:57;;;;;;;23.23;9.48;;;-1.40;93.70;;;;;;6216881;22;88529;-78
2023/04/05 05:17:23;;;;;;;21.38;9.88;;;-1.40;93.70;;;;;;6216808;22;88277;-82
2023/04/05 05:19:50;;;;;;;22.98;10.80;;;-1.40;93.50;;;;;;6217805;22;87354;-75
2023/04/05 05:22:15;;;;;;;23.48;9.80;;;-1.40;93.50;;;;;;6188917;22;87880;-77
2023/04/05 05:24:42;;;;;;;25.38;9.77;;;-1.40;93.70;;;;;;6213238;22;88855;-78
2023/04/05 05:27:08;;;;;;;17.50;9.40;;;-1.40;93.50;;;;;;6213107;22;87468;-75
2023/04/05 05:29:34;;;;;;;21.65;10.07;;;-1.40;93.50;;;;;;6213736;22;87441;-77
2023/04/05 05:31:59;;;;;;;21.17;9.57;;;-1.30;93.60;;;;;;6210718;22;87230;-77
2023/04/05 05:34:25;;;;;;;18.35;9.07;;;-1.30;93.90;;;;;;6212950;22;89982;-80
2023/04/05 05:36:52;;;;;;;21.88;10.18;;;-1.30;93.70;;;;;;6184462;22;90906;-82
2023/04/05 05:39:18;;;;;;;23.60;10.07;;;-1.30;93.50;;;;;;6214916;22;87447;-78
2023/04/05 05:41:44;;;;;;;19.83;10.48;;;-1.20;93.70;;;;;;6215568;22;87208;-77
2023/04/05 05:44:09;;;;;;;22.00;10.55;;;-1.30;93.70;;;;;;6187898;22;90288;-75
2023/04/05 05:46:35;;;;;;;20.83;10.25;;;-1.20;93.80;;;;;;6189834;22;90363;-75
2023/04/05 05:49:00;;;;;;;21.90;11.13;;;-1.20;93.60;;;;;;6215774;22;87525;-77
2023/04/05 05:54:48;;;;;;;22.15;12.20;;;-1.20;93.90;;;;;;6216928;22;87175;-84
2023/04/05 05:57:14;;;;;;;27.15;12.65;;;-1.10;93.90;;;;;;6216121;22;88407;-79
2023/04/05 05:59:40;;;;;;;27.42;14.00;;;-1.10;93.90;;;;;;6215772;22;88232;-83
2023/04/05 06:02:06;;;;;;;38.47;14.63;;;-1.00;94.20;;;;;;6189071;22;89021;-83
2023/04/05 06:04:33;;;;;;;33.38;16.25;;;-0.90;94.10;;;;;;6216206;22;89367;-78
2023/04/05 06:10:20;;;;;;;29.30;14.90;;;-0.70;93.90;;;;;;6214749;22;87361;-79
2023/04/05 06:12:46;;;;;;;33.05;15.50;;;-0.60;93.80;;;;;;6215128;22;87444;-76
2023/04/05 06:15:11;;;;;;;29.60;15.40;;;-0.50;94.00;;;;;;6215646;22;88945;-76
2023/04/05 06:17:41;;;;;;;24.58;13.57;;;-0.40;93.70;;;;;;6214789;22;87912;-77
2023/04/05 06:20:10;;;;;;;22.92;12.18;;;-0.30;93.60;;;;;;6213760;22;87903;-76
2023/04/05 06:22:39;;;;;;;26.02;12.75;;;-0.20;93.70;;;;;;6215517;22;87368;-80
2023/04/05 06:28:27;;;;;;;27.40;12.85;;;0.00;93.40;;;;;;6214522;22;92915;-76
2023/04/05 06:30:54;;;;;;;25.92;12.75;;;0.10;93.20;;;;;;6215769;22;87229;-78
2023/04/05 06:33:20;;;;;;;30.58;13.57;;;0.20;93.30;;;;;;6215145;22;87558;-75
2023/04/05 06:35:46;;;;;;;22.25;12.60;;;0.30;93.10;;;;;;6214529;22;88286;-79
2023/04/05 06:38:11;;;;;;;23.17;12.77;;;0.40;92.90;;;;;;6213929;22;87850;-75
2023/04/05 06:40:37;;;;;;;25.65;14.15;;;0.50;92.90;;;;;;6150431;22;88130;-76
2023/04/05 06:43:03;;;;;;;26.77;12.75;;;0.60;92.80;;;;;;6151070;22;87284;-76
2023/04/05 06:48:51;;;;;;;28.95;13.60;;;0.90;92.60;;;;;;6145424;22;87647;-77
2023/04/05 06:51:17;;;;;;;25.55;14.20;;;1.00;92.90;;;;;;6150092;22;88320;-77
2023/04/05 06:53:43;;;;;;;31.92;15.00;;;1.10;92.90;;;;;;6125660;22;89062;-76
2023/04/05 06:56:09;;;;;;;26.83;15.63;;;1.30;92.70;;;;;;6152319;22;88760;-76
2023/04/05 07:12:09;;;;;;;24.83;13.88;;;2.10;90.20;;;;;;6191550;22;86940;-77
2023/04/05 07:14:36;;;;;;;26.67;13.88;;;2.30;89.60;;;;;;6215248;22;87879;-76
2023/04/05 07:17:04;;;;;;;26.30;12.95;;;2.40;89.80;;;;;;6216254;22;87622;-78
2023/04/05 07:19:30;;;;;;;27.20;14.50;;;2.50;88.10;;;;;;6214859;22;89428;-77
2023/04/05 07:21:56;;;;;;;29.63;13.60;;;2.60;88.40;;;;;;6188338;22;92681;-74
2023/04/05 07:24:22;;;;;;;23.92;13.65;;;2.70;87.50;;;;;;6187818;22;87568;-76
2023/04/05 07:26:51;;;;;;;23.17;12.80;;;2.80;87.70;;;;;;6214753;22;87181;-74
2023/04/05 07:29:16;;;;;;;25.58;14.57;;;3.00;87.50;;;;;;6187686;22;91336;-77
2023/04/05 07:31:43;;;;;;;21.02;12.90;;;3.10;88.10;;;;;;6215978;22;87551;-78
2023/04/05 07:34:09;;;;;;;24.33;13.00;;;3.30;85.50;;;;;;6214999;22;87529;-77
2023/04/05 07:36:34;;;;;;;21.77;12.27;;;3.40;85.40;;;;;;6214893;22;87133;-76
2023/04/05 07:39:01;;;;;;;22.30;13.50;;;3.50;83.00;;;;;;6213219;22;88599;-81
2023/04/05 07:41:31;;;;;;;23.73;12.77;;;3.70;84.00;;;;;;6214203;22;88536;-78
2023/04/05 07:43:57;;;;;;;22.92;12.82;;;3.80;83.30;;;;;;6215208;22;88435;-79
2023/04/05 07:46:24;;;;;;;21.95;12.77;;;4.00;80.70;;;;;;6215660;22;87256;-78
2023/04/05 07:48:49;;;;;;;23.67;12.80;;;4.10;77.70;;;;;;6215040;22;87303;-79
2023/04/05 07:51:15;;;;;;;24.35;12.25;;;4.20;78.00;;;;;;6215570;22;89057;-76
2023/04/05 07:53:41;;;;;;;17.77;10.98;;;4.30;76.10;;;;;;6215980;22;87348;-78
2023/04/05 07:56:09;;;;;;;26.25;12.10;;;4.50;75.90;;;;;;6215864;22;87693;-78
2023/04/05 07:58:38;;;;;;;20.48;12.00;;;4.60;77.10;;;;;;6188465;22;90836;-78
2023/04/05 08:07:49;;;;;;;28.38;12.00;;;5.20;74.80;;;;;;6152930;22;90515;-79
2023/04/05 08:10:15;;;;;;;21.75;11.70;;;5.50;73.40;;;;;;6151951;22;88513;-78
2023/04/05 08:12:40;;;;;;;21.75;11.32;;;5.60;70.50;;;;;;6152750;22;89072;-78
2023/04/05 08:15:06;;;;;;;19.27;10.75;;;5.80;70.10;;;;;;6153189;22;87489;-79
2023/04/05 08:17:32;;;;;;;22.00;11.45;;;5.90;71.00;;;;;;6152446;22;88233;-79
2023/04/05 08:19:58;;;;;;;18.17;10.25;;;6.20;71.50;;;;;;6153428;22;88621;-79
2023/04/05 08:29:06;;;;;;;20.52;10.27;;;6.70;65.10;;;;;;6152597;22;90997;-79
2023/04/05 08:31:32;;;;;;;17.25;9.55;;;7.00;64.60;;;;;;6169306;22;87939;-79
2023/04/05 08:33:58;;;;;;;19.67;9.15;;;7.20;63.80;;;;;;6218007;22;87277;-79
2023/04/05 08:36:25;;;;;;;16.42;9.50;;;7.40;61.70;;;;;;6217370;22;87831;-78
2023/04/05 08:38:50;;;;;;;16.45;9.50;;;7.50;60.00;;;;;;6218021;22;87698;-80
2023/04/05 08:41:18;;;;;;;16.75;8.85;;;7.70;61.10;;;;;;6218334;22;88219;-79
2023/04/05 08:44:01;;;;;;;21.10;8.35;;;7.90;59.10;;;;;;6219439;22;88188;-80
2023/04/05 08:46:30;;;;;;;16.53;8.53;;;8.00;57.90;;;;;;6219393;22;87581;-81
2023/04/05 08:48:57;;;;;;;13.70;8.07;;;8.20;59.90;;;;;;6218884;22;87514;-80
2023/04/05 08:51:24;;;;;;;16.13;8.27;;;8.40;56.30;;;;;;6218272;22;88442;-80
2023/04/05 08:53:50;;;;;;;13.10;8.20;;;8.50;56.30;;;;;;6191682;22;91318;-80
2023/04/05 08:56:26;;;;;;;17.35;8.50;;;8.70;55.60;;;;;;6190232;22;87596;-80
2023/04/05 08:59:09;;;;;;;14.70;8.40;;;8.80;55.40;;;;;;6191086;22;91244;-80
2023/04/05 09:01:42;;;;;;;17.25;8.82;;;9.10;58.00;;;;;;6189758;22;96443;-80
2023/04/05 09:04:26;;;;;;;13.35;7.95;;;9.40;56.60;;;;;;6191282;22;91375;-80
2023/04/05 09:06:55;;;;;;;14.85;7.78;;;9.70;54.30;;;;;;6216884;22;87511;-80
2023/04/05 09:09:22;;;;;;;14.73;7.93;;;9.90;54.70;;;;;;6192443;22;90658;-80
2023/04/05 09:11:48;;;;;;;11.55;7.28;;;10.20;54.70;;;;;;6219543;22;88290;-80
2023/04/05 09:14:15;;;;;;;18.48;8.50;;;10.30;53.00;;;;;;6220282;22;88236;-80
2023/04/05 09:16:41;;;;;;;13.05;6.60;;;10.50;53.30;;;;;;6195036;22;87528;-80
2023/04/05 09:19:07;;;;;;;10.98;6.45;;;10.80;54.00;;;;;;6194040;22;92492;-80
2023/04/05 09:22:05;;;;;;;14.10;6.63;;;11.10;50.70;;;;;;6197582;22;91692;-80
2023/04/05 09:24:42;;;;;;;12.18;5.75;;;11.40;52.70;;;;;;6214412;22;87624;-80
2023/04/05 09:27:16;;;;;;;15.70;7.88;;;11.60;48.30;;;;;;6221276;22;88400;-80
2023/04/05 09:29:44;;;;;;;14.02;7.95;;;11.50;48.60;;;;;;6196134;22;89486;-80
2023/04/05 09:32:10;;;;;;;13.20;7.13;;;11.60;49.80;;;;;;6224064;22;87569;-80
2023/04/05 09:34:38;;;;;;;11.90;6.53;;;11.80;48.30;;;;;;6224879;22;92764;-80
2023/04/05 09:37:20;;;;;;;11.93;6.28;;;12.00;50.60;;;;;;6225650;22;87438;-80
2023/04/05 09:39:51;;;;;;;14.90;6.80;;;12.40;50.70;;;;;;6224943;22;87355;-80
2023/04/05 09:42:18;;;;;;;12.48;6.60;;;12.70;49.60;;;;;;6199742;22;90175;-80
2023/04/05 09:45:00;;;;;;;14.45;6.93;;;12.90;47.80;;;;;;6227256;22;87324;-80
2023/04/05 09:47:31;;;;;;;14.65;6.95;;;13.10;43.90;;;;;;6201845;22;87418;-80
2023/04/05 09:50:17;;;;;;;12.05;6.60;;;12.90;43.30;;;;;;6228420;22;87305;-80
2023/04/05 09:52:43;;;;;;;16.75;6.80;;;12.90;43.80;;;;;;6232845;22;92727;-81
2023/04/05 09:55:09;;;;;;;10.55;6.60;;;13.30;46.60;;;;;;6215062;22;91437;-81
2023/04/05 09:57:42;;;;;;;14.65;7.20;;;13.70;45.00;;;;;;6241006;22;86813;-81
2023/04/05 10:00:21;;;;;;;13.32;7.43;;;13.70;43.70;;;;;;6216030;22;89778;-81
2023/04/05 10:02:52;;;;;;;11.95;6.82;;;13.80;41.80;;;;;;6212837;22;90807;-81
2023/04/05 10:05:22;;;;;;;11.90;6.68;;;13.70;45.10;;;;;;6216655;22;90219;-81
2023/04/05 10:07:48;;;;;;;9.05;6.03;;;13.80;42.60;;;;;;6218031;22;87287;-81
2023/04/05 10:10:15;;;;;;;10.77;7.20;;;14.10;45.20;;;;;;6217235;22;87771;-81
2023/04/05 10:12:41;;;;;;;14.40;6.97;;;14.40;41.30;;;;;;6240197;22;87827;-81
2023/04/05 10:15:08;;;;;;;11.70;6.60;;;14.50;42.00;;;;;;6240213;22;87244;-81
2023/04/05 10:17:42;;;;;;;10.40;5.97;;;14.60;40.90;;;;;;6201173;22;88876;-78
2023/04/05 10:20:16;;;;;;;10.95;6.05;;;14.80;44.10;;;;;;6217713;22;87643;-78
2023/04/05 10:22:45;;;;;;;9.82;4.85;;;15.00;42.50;;;;;;6203627;22;95951;-81
2023/04/05 10:25:44;;;;;;;10.85;6.53;;;15.30;43.90;;;;;;6237066;22;87261;-81
2023/04/05 10:28:32;;;;;;;12.00;6.35;;;15.50;40.00;;;;;;6238504;22;87281;-81
2023/04/05 10:31:26;;;;;;;10.13;5.45;;;15.20;37.60;;;;;;6214707;22;89713;-81
2023/04/05 10:34:07;;;;;;;12.60;6.30;;;15.10;45.30;;;;;;6239429;22;87697;-81
2023/04/05 10:36:55;;;;;;;10.43;6.30;;;15.20;37.10;;;;;;6238060;22;88402;-81
2023/04/05 10:39:32;;;;;;;9.05;6.07;;;15.00;35.10;;;;;;6230703;22;87315;-81
2023/04/05 10:42:16;;;;;;;10.88;6.00;;;14.70;36.40;;;;;;6203255;22;90946;-81
2023/04/05 10:44:44;;;;;;;13.50;6.35;;;14.70;37.30;;;;;;6204745;22;91983;-80
2023/04/05 10:47:16;;;;;;;9.80;5.90;;;14.90;40.40;;;;;;6232242;22;91604;-80
2023/04/05 10:49:59;;;;;;;13.10;5.95;;;15.20;40.70;;;;;;6232389;22;86914;-78
2023/04/05 10:52:26;;;;;;;11.53;6.70;;;15.70;42.40;;;;;;6241108;22;87148;-78
2023/04/05 10:54:51;;;;;;;12.07;6.47;;;16.10;38.20;;;;;;6219771;22;88647;-78
2023/04/05 10:57:18;;;;;;;8.43;6.18;;;16.50;42.00;;;;;;6189149;22;90008;-78
2023/04/05 10:59:45;;;;;;;17.90;6.47;;;16.70;40.50;;;;;;6217106;22;87624;-78
2023/04/05 11:29:07;;;;;;;12.68;6.57;;;15.90;34.90;;;;;;6215817;22;90916;-78
2023/04/05 11:31:33;;;;;;;10.57;7.13;;;16.00;35.60;;;;;;6217013;22;88022;-78
2023/04/05 11:34:09;;;;;;;13.52;6.22;;;16.10;39.10;;;;;;6216417;22;88402;-78
2023/04/05 11:36:34;;;;;;;11.20;6.70;;;16.50;37.60;;;;;;6216847;22;87980;-78
2023/04/05 11:39:18;;;;;;;12.43;6.75;;;16.90;35.50;;;;;;6189731;22;89585;-79
2023/04/05 11:42:06;;;;;;;9.77;7.32;;;17.40;38.70;;;;;;6216377;22;90706;-78
2023/04/05 11:44:41;;;;;;;15.00;7.38;;;17.70;38.70;;;;;;6217694;22;88160;-78
2023/04/05 11:47:07;;;;;;;11.55;6.93;;;17.60;34.10;;;;;;6217497;22;87384;-78
2023/04/05 11:49:33;;;;;;;13.50;7.20;;;16.90;32.40;;;;;;6216498;22;87136;-78
2023/04/05 11:52:12;;;;;;;11.35;6.53;;;16.50;34.90;;;;;;6216886;22;88451;-78
2023/04/05 11:54:44;;;;;;;10.80;6.65;;;16.50;34.50;;;;;;6216972;22;88052;-78
2023/04/05 11:57:12;;;;;;;10.57;6.88;;;16.60;35.00;;;;;;6216730;22;93096;-78
2023/04/05 11:59:50;;;;;;;8.48;5.38;;;17.00;40.70;;;;;;6217173;22;86936;-78
2023/04/05 12:02:16;;;;;;;11.35;5.78;;;17.60;36.60;;;;;;6189657;22;90491;-78
2023/04/05 12:04:42;;;;;;;9.50;5.90;;;17.80;37.10;;;;;;6217506;22;88214;-78
2023/04/05 12:07:18;;;;;;;14.93;6.70;;;17.60;32.30;;;;;;6189357;22;88357;-78
2023/04/05 12:16:28;;;;;;;12.18;7.35;;;18.20;34.10;;;;;;6216257;22;87450;-80
2023/04/05 12:18:55;;;;;;;10.52;6.95;;;18.30;32.20;;;;;;6217262;22;87450;-79
2023/04/05 12:21:21;;;;;;;11.15;5.55;;;18.40;37.30;;;;;;6216941;22;88668;-78
2023/04/05 12:23:48;;;;;;;11.48;6.40;;;18.90;36.90;;;;;;6217764;22;87027;-78
2023/04/05 12:26:14;;;;;;;9.43;6.57;;;19.10;33.70;;;;;;6214872;22;87836;-78
2023/04/05 12:28:57;;;;;;;7.88;5.78;;;19.40;35.90;;;;;;6213326;22;87033;-78
2023/04/05 12:32:03;;;;;;;9.80;6.50;;;20.10;36.50;;;;;;6214354;22;87518;-76
2023/04/05 12:34:28;;;;;;;10.77;6.22;;;20.40;33.30;;;;;;6117816;23;89469;-81
2023/04/05 12:36:55;;;;;;;10.10;6.68;;;20.20;32.00;;;;;;6135703;23;88413;-80
2023/04/05 12:39:21;;;;;;;11.48;6.63;;;20.10;31.80;;;;;;6127041;23;87428;-80
2023/04/05 12:41:57;;;;;;;10.70;6.50;;;20.00;32.20;;;;;;6127580;23;87975;-79
2023/04/05 12:44:30;;;;;;;10.45;7.43;;;19.60;30.50;;;;;;6119195;23;88351;-80
2023/04/05 12:47:02;;;;;;;11.63;6.45;;;19.00;30.90;;;;;;6123885;23;92337;-79
2023/04/05 12:49:28;;;;;;;12.82;6.60;;;18.90;33.50;;;;;;6124723;23;86924;-80
2023/04/05 12:51:59;;;;;;;10.07;7.13;;;19.30;30.80;;;;;;6125180;23;87050;-79
2023/04/05 12:54:26;;;;;;;16.25;7.95;;;19.20;29.80;;;;;;6124593;23;88527;-79
2023/04/05 12:56:55;;;;;;;11.60;7.38;;;18.70;30.20;;;;;;6123867;23;88344;-79
2023/04/05 12:59:22;;;;;;;7.90;6.70;;;18.20;30.90;;;;;;6124169;23;88470;-79
2023/04/05 13:01:47;;;;;;;9.00;6.10;;;18.30;32.00;;;;;;6122280;23;87555;-79
2023/04/05 13:04:13;;;;;;;10.48;7.30;;;18.60;34.30;;;;;;6099247;23;90561;-79
2023/04/05 13:06:39;;;;;;;10.18;6.97;;;19.10;34.20;;;;;;6217047;22;87476;-80
2023/04/05 13:09:04;;;;;;;10.05;6.95;;;19.50;30.90;;;;;;6219917;22;87365;-79
2023/04/05 13:11:30;;;;;;;11.02;7.30;;;19.50;29.70;;;;;;6218830;22;87507;-79
2023/04/05 13:17:24;;;;;;;14.95;7.47;;;19.00;32.20;;;;;;6218810;22;86977;-80
2023/04/05 13:19:49;;;;;;;8.30;6.80;;;19.40;31.70;;;;;;6220180;22;87064;-79
2023/04/05 13:22:15;;;;;;;10.75;7.03;;;19.30;30.80;;;;;;6218439;22;87687;-79
2023/04/05 13:24:41;;;;;;;9.80;7.55;;;19.20;30.60;;;;;;6217229;22;88447;-79
2023/04/05 13:27:06;;;;;;;8.73;6.82;;;19.10;30.20;;;;;;6217777;22;89012;-79
2023/04/05 13:29:32;;;;;;;7.88;6.30;;;19.20;32.00;;;;;;6220437;22;87336;-75
2023/04/05 13:31:57;;;;;;;9.95;6.60;;;19.40;33.60;;;;;;6219394;22;87966;-79
2023/04/05 13:34:23;;;;;;;14.10;7.93;;;19.50;32.10;;;;;;6222038;22;88637;-79
2023/04/05 13:36:49;;;;;;;9.50;6.90;;;19.70;32.10;;;;;;6222598;22;87863;-81
2023/04/05 13:39:14;;;;;;;7.95;6.93;;;19.60;29.50;;;;;;6196957;22;87486;-76
2023/04/05 13:41:40;;;;;;;11.50;8.35;;;19.80;30.30;;;;;;6224288;22;86612;-79
2023/04/05 13:44:05;;;;;;;12.02;7.75;;;19.60;30.50;;;;;;6221942;22;88705;-78
2023/04/05 13:46:31;;;;;;;10.40;7.50;;;19.20;34.30;;;;;;6190123;22;90873;-77
2023/04/05 13:48:57;;;;;;;10.80;7.68;;;19.60;31.80;;;;;;6214948;22;87988;-78
2023/04/05 13:51:22;;;;;;;10.95;7.53;;;19.60;30.90;;;;;;6216409;22;87954;-78
2023/04/05 13:53:48;;;;;;;11.48;7.55;;;19.80;30.70;;;;;;6215790;22;88489;-78
2023/04/05 13:56:14;;;;;;;11.07;7.95;;;20.30;31.40;;;;;;6217159;22;87746;-78
2023/04/05 13:58:39;;;;;;;9.45;7.38;;;20.80;30.60;;;;;;6217804;22;87598;-78
2023/04/05 14:01:05;;;;;;;13.27;7.60;;;20.30;30.00;;;;;;6173993;22;87153;-77
2023/04/05 14:03:31;;;;;;;9.90;7.72;;;20.00;29.60;;;;;;6189296;22;91999;-78
2023/04/05 14:05:56;;;;;;;12.50;7.03;;;20.00;31.10;;;;;;6216153;22;88160;-78
2023/04/05 14:08:22;;;;;;;9.43;6.75;;;20.30;29.40;;;;;;6151884;22;87060;-77
2023/04/05 14:17:32;;;;;;;11.02;7.50;;;21.40;31.20;;;;;;6152954;22;87569;-79
2023/04/05 14:19:58;;;;;;;9.27;6.95;;;22.00;30.10;;;;;;6153341;22;87671;-78
2023/04/05 14:22:24;;;;;;;9.93;7.13;;;21.90;29.40;;;;;;6153503;22;87888;-78
2023/04/05 14:24:50;;;;;;;9.50;6.63;;;21.30;28.00;;;;;;6153075;22;88417;-78
2023/04/05 14:27:15;;;;;;;7.30;6.50;;;21.00;28.70;;;;;;6152179;22;88422;-78
2023/04/05 14:29:43;;;;;;;9.18;6.63;;;20.70;29.70;;;;;;6152207;22;87626;-78
2023/04/05 14:32:08;;;;;;;8.85;6.90;;;20.50;28.80;;;;;;6128771;22;90691;-77
2023/04/05 14:34:35;;;;;;;9.65;6.53;;;20.40;28.30;;;;;;6153700;22;87527;-78
2023/04/05 14:37:02;;;;;;;10.43;6.93;;;20.10;31.10;;;;;;6153178;22;88035;-78
2023/04/05 14:39:40;;;;;;;11.63;8.20;;;20.40;31.30;;;;;;6160336;22;88702;-78
2023/04/05 14:42:06;;;;;;;10.23;6.93;;;20.80;30.10;;;;;;6216971;22;87392;-78
2023/04/05 14:44:32;;;;;;;9.25;7.22;;;21.20;31.00;;;;;;6189683;22;91245;-78
2023/04/05 14:46:58;;;;;;;11.57;7.15;;;21.70;29.30;;;;;;6216159;22;87475;-78
2023/04/05 14:49:24;;;;;;;9.00;6.90;;;22.10;27.70;;;;;;6217078;22;87167;-78
2023/04/05 14:52:05;;;;;;;12.77;7.80;;;22.80;27.80;;;;;;6216529;22;87266;-79
2023/04/05 14:54:30;;;;;;;9.75;7.60;;;23.00;29.30;;;;;;6216658;22;87649;-78
2023/04/05 14:56:56;;;;;;;9.98;7.82;;;22.50;27.10;;;;;;6190325;22;91446;-77
2023/04/05 14:59:21;;;;;;;11.18;7.90;;;21.90;27.70;;;;;;6217480;22;87275;-78
2023/04/05 15:01:47;;;;;;;11.77;7.90;;;21.50;30.90;;;;;;6218389;22;87410;-78
2023/04/05 15:04:13;;;;;;;8.93;7.32;;;21.90;28.20;;;;;;6195168;22;92083;-80
2023/04/05 15:06:38;;;;;;;10.20;7.13;;;22.00;28.20;;;;;;6219725;22;89207;-80
2023/04/05 15:09:04;;;;;;;8.50;7.57;;;22.20;29.50;;;;;;6223891;22;87404;-80
2023/04/05 15:11:33;;;;;;;11.18;7.72;;;22.60;28.80;;;;;;6224873;22;87402;-80
2023/04/05 15:13:58;;;;;;;9.52;7.38;;;22.60;27.80;;;;;;6198802;22;91647;-80
2023/04/05 15:16:39;;;;;;;10.52;8.05;;;22.90;29.10;;;;;;6199475;22;90315;-80
2023/04/05 15:19:06;;;;;;;12.35;7.78;;;22.80;28.50;;;;;;6199347;22;87396;-80